sensor_id;sensor_type;location;lat;lon;timestamp;pressure;altitude;pressure_sealevel;temperature;humidity
24666;BME280;29726;53.532;-1.478;2023-04-04T00:01:29;101977.56;;;13.75;89.77
24666;BME280;29726;53.532;-1.478;2023-04-04T00:04:13;101977.88;;;13.77;89.72
24666;BME280;29726;53.532;-1.478;2023-04-04T00:06:57;101981.84;;;13.67;89.48
24666;BME280;29726;53.532;-1.478;2023-04-04T00:09:41;101984.66;;;13.67;89.57
24666;BME280;29726;53.532;-1.478;2023-04-04T00:12:25;101985.69;;;13.61;89.31
24666;BME280;29726;53.532;-1.478;2023-04-04T00:15:09;101988.63;;;13.57;89.11
24666;BME280;29726;53.532;-1.478;2023-04-04T00:17:53;101948.38;;;13.27;89.05
24666;BME280;29726;53.532;-1.478;2023-04-04T00:20:38;101992.22;;;13.45;89.10
24666;BME280;29726;53.532;-1.478;2023-04-04T00:23:22;101997.50;;;13.43;89.07
24666;BME280;29726;53.532;-1.478;2023-04-04T00:26:06;101991.22;;;13.39;88.86
24666;BME280;29726;53.532;-1.478;2023-04-04T00:29:08;101971.28;;;13.25;88.85
24666;BME280;29726;53.532;-1.478;2023-04-04T00:32:11;101974.84;;;13.26;88.72
24666;BME280;29726;53.532;-1.478;2023-04-04T00:42:17;101977.31;;;13.11;88.42
24666;BME280;29726;53.532;-1.478;2023-04-04T00:45:06;101975.53;;;13.05;88.38
24666;BME280;29726;53.532;-1.478;2023-04-04T00:47:51;101978.00;;;13.03;88.26
24666;BME280;29726;53.532;-1.478;2023-04-04T00:50:35;101974.19;;;12.97;88.33
24666;BME280;29726;53.532;-1.478;2023-04-04T00:53:38;101982.59;;;12.97;88.27
24666;BME280;29726;53.532;-1.478;2023-04-04T00:56:41;101970.44;;;12.87;88.16
24666;BME280;29726;53.532;-1.478;2023-04-04T01:03:25;101962.69;;;12.79;88.04
24666;BME280;29726;53.532;-1.478;2023-04-04T01:06:29;101963.94;;;12.78;87.98
24666;BME280;29726;53.532;-1.478;2023-04-04T01:09:32;101952.28;;;12.67;87.82
24666;BME280;29726;53.532;-1.478;2023-04-04T01:12:35;101954.19;;;12.70;87.50
24666;BME280;29726;53.532;-1.478;2023-04-04T01:19:35;101897.88;;;12.27;87.54
24666;BME280;29726;53.532;-1.478;2023-04-04T01:22:39;101945.09;;;12.53;87.46
24666;BME280;29726;53.532;-1.478;2023-04-04T01:29:23;101939.81;;;12.43;87.32
24666;BME280;29726;53.532;-1.478;2023-04-04T01:32:40;101931.59;;;12.36;87.30
24666;BME280;29726;53.532;-1.478;2023-04-04T01:35:34;101936.44;;;12.35;87.10
24666;BME280;29726;53.532;-1.478;2023-04-04T01:39:17;101925.28;;;12.19;87.01
24666;BME280;29726;53.532;-1.478;2023-04-04T01:42:06;101904.97;;;12.03;86.89
24666;BME280;29726;53.532;-1.478;2023-04-04T01:45:09;101935.25;;;12.20;86.92
24666;BME280;29726;53.532;-1.478;2023-04-04T01:48:12;101900.78;;;11.95;86.77
24666;BME280;29726;53.532;-1.478;2023-04-04T01:51:15;101922.47;;;12.07;86.77
24666;BME280;29726;53.532;-1.478;2023-04-04T02:04:24;101920.16;;;11.89;86.64
24666;BME280;29726;53.532;-1.478;2023-04-04T02:10:50;101921.56;;;11.81;86.64
24666;BME280;29726;53.532;-1.478;2023-04-04T02:17:15;101920.28;;;11.70;86.39
24666;BME280;29726;53.532;-1.478;2023-04-04T02:20:17;101927.56;;;11.67;86.48
24666;BME280;29726;53.532;-1.478;2023-04-04T02:27:10;101917.16;;;11.52;86.35
24666;BME280;29726;53.532;-1.478;2023-04-04T02:29:54;101919.97;;;11.52;86.31
24666;BME280;29726;53.532;-1.478;2023-04-04T02:32:38;101910.97;;;11.45;86.29
24666;BME280;29726;53.532;-1.478;2023-04-04T02:35:41;101906.59;;;11.44;86.27
24666;BME280;29726;53.532;-1.478;2023-04-04T02:38:44;101904.69;;;11.41;86.30
24666;BME280;29726;53.532;-1.478;2023-04-04T02:41:28;101892.78;;;11.37;86.04
24666;BME280;29726;53.532;-1.478;2023-04-04T02:44:12;101902.16;;;11.30;86.17
24666;BME280;29726;53.532;-1.478;2023-04-04T02:46:56;101897.81;;;11.29;86.07
24666;BME280;29726;53.532;-1.478;2023-04-04T02:49:40;101891.94;;;11.24;86.09
24666;BME280;29726;53.532;-1.478;2023-04-04T02:52:24;101888.00;;;11.21;85.96
24666;BME280;29726;53.532;-1.478;2023-04-04T02:55:09;101883.03;;;11.13;85.96
24666;BME280;29726;53.532;-1.478;2023-04-04T02:57:53;101896.22;;;11.12;85.90
24666;BME280;29726;53.532;-1.478;2023-04-04T03:00:37;101888.38;;;11.07;85.85
24666;BME280;29726;53.532;-1.478;2023-04-04T03:03:21;101896.41;;;11.05;85.83
24666;BME280;29726;53.532;-1.478;2023-04-04T03:06:05;101884.09;;;11.03;85.75
24666;BME280;29726;53.532;-1.478;2023-04-04T03:08:50;101896.91;;;11.00;85.65
24666;BME280;29726;53.532;-1.478;2023-04-04T03:11:34;101885.50;;;10.95;85.51
24666;BME280;29726;53.532;-1.478;2023-04-04T03:14:18;101874.06;;;10.89;85.67
24666;BME280;29726;53.532;-1.478;2023-04-04T03:17:02;101880.00;;;10.91;85.52
24666;BME280;29726;53.532;-1.478;2023-04-04T03:19:47;101890.47;;;10.87;85.27
24666;BME280;29726;53.532;-1.478;2023-04-04T03:22:31;101871.25;;;10.73;85.26
24666;BME280;29726;53.532;-1.478;2023-04-04T03:25:15;101879.09;;;10.78;85.29
24666;BME280;29726;53.532;-1.478;2023-04-04T03:28:09;101885.91;;;10.77;85.29
24666;BME280;29726;53.532;-1.478;2023-04-04T03:30:54;101880.06;;;10.72;85.15
24666;BME280;29726;53.532;-1.478;2023-04-04T03:33:38;101874.22;;;10.66;85.13
24666;BME280;29726;53.532;-1.478;2023-04-04T03:36:40;101861.66;;;10.58;84.88
24666;BME280;29726;53.532;-1.478;2023-04-04T03:39:27;101875.50;;;10.62;85.01
24666;BME280;29726;53.532;-1.478;2023-04-04T03:42:12;101867.22;;;10.58;84.96
24666;BME280;29726;53.532;-1.478;2023-04-04T03:44:56;101861.38;;;10.53;84.99
24666;BME280;29726;53.532;-1.478;2023-04-04T03:47:40;101867.38;;;10.51;84.86
24666;BME280;29726;53.532;-1.478;2023-04-04T03:50:24;101852.44;;;10.42;84.68
24666;BME280;29726;53.532;-1.478;2023-04-04T03:53:08;101870.41;;;10.41;85.05
24666;BME280;29726;53.532;-1.478;2023-04-04T03:55:55;101822.03;;;10.12;84.95
24666;BME280;29726;53.532;-1.478;2023-04-04T03:58:39;101862.28;;;10.30;84.62
24666;BME280;29726;53.532;-1.478;2023-04-04T04:01:23;101871.38;;;10.34;84.71
24666;BME280;29726;53.532;-1.478;2023-04-04T04:04:07;101874.22;;;10.31;84.83
24666;BME280;29726;53.532;-1.478;2023-04-04T04:06:51;101865.59;;;10.25;84.59
24666;BME280;29726;53.532;-1.478;2023-04-04T04:09:35;101860.16;;;10.18;84.59
24666;BME280;29726;53.532;-1.478;2023-04-04T04:12:19;101862.25;;;10.14;84.58
24666;BME280;29726;53.532;-1.478;2023-04-04T04:19:04;101859.25;;;10.05;84.57
24666;BME280;29726;53.532;-1.478;2023-04-04T04:21:48;101849.38;;;10.01;84.15
24666;BME280;29726;53.532;-1.478;2023-04-04T04:24:33;101839.19;;;9.91;84.44
24666;BME280;29726;53.532;-1.478;2023-04-04T04:27:17;101855.34;;;9.99;84.48
24666;BME280;29726;53.532;-1.478;2023-04-04T04:30:04;101861.81;;;9.96;84.46
24666;BME280;29726;53.532;-1.478;2023-04-04T04:32:49;101854.81;;;9.88;84.33
24666;BME280;29726;53.532;-1.478;2023-04-04T04:35:40;101862.72;;;9.90;84.44
24666;BME280;29726;53.532;-1.478;2023-04-04T04:38:25;101858.88;;;9.84;84.24
24666;BME280;29726;53.532;-1.478;2023-04-04T04:41:16;101866.19;;;9.78;84.33
24666;BME280;29726;53.532;-1.478;2023-04-04T04:44:03;101862.22;;;9.76;84.29
24666;BME280;29726;53.532;-1.478;2023-04-04T04:47:02;101873.38;;;9.76;84.30
24666;BME280;29726;53.532;-1.478;2023-04-04T04:50:08;101873.91;;;9.71;84.04
24666;BME280;29726;53.532;-1.478;2023-04-04T04:53:05;101869.22;;;9.64;84.40
24666;BME280;29726;53.532;-1.478;2023-04-04T04:55:57;101864.56;;;9.58;84.05
24666;BME280;29726;53.532;-1.478;2023-04-04T04:59:02;101877.66;;;9.61;84.09
24666;BME280;29726;53.532;-1.478;2023-04-04T05:02:14;101880.53;;;9.57;84.04
24666;BME280;29726;53.532;-1.478;2023-04-04T05:05:21;101869.44;;;9.54;84.05
24666;BME280;29726;53.532;-1.478;2023-04-04T05:08:16;101879.88;;;9.50;83.77
24666;BME280;29726;53.532;-1.478;2023-04-04T05:11:01;101878.81;;;9.44;83.81
24666;BME280;29726;53.532;-1.478;2023-04-04T05:13:52;101867.47;;;9.31;83.48
24666;BME280;29726;53.532;-1.478;2023-04-04T05:16:44;101883.75;;;9.33;83.87
24666;BME280;29726;53.532;-1.478;2023-04-04T05:19:43;101886.91;;;9.35;83.88
24666;BME280;29726;53.532;-1.478;2023-04-04T05:22:32;101886.19;;;9.31;83.70
24666;BME280;29726;53.532;-1.478;2023-04-04T05:25:28;101888.25;;;9.27;83.83
24666;BME280;29726;53.532;-1.478;2023-04-04T05:28:14;101891.09;;;9.23;83.80
24666;BME280;29726;53.532;-1.478;2023-04-04T05:31:01;101883.59;;;9.20;83.62
24666;BME280;29726;53.532;-1.478;2023-04-04T05:34:14;101884.09;;;9.15;84.03
24666;BME280;29726;53.532;-1.478;2023-04-04T05:37:05;101886.16;;;9.11;83.57
24666;BME280;29726;53.532;-1.478;2023-04-04T05:40:06;101864.44;;;8.99;83.39
24666;BME280;29726;53.532;-1.478;2023-04-04T05:46:40;101876.13;;;8.91;83.27
24666;BME280;29726;53.532;-1.478;2023-04-04T05:49:48;101882.13;;;8.89;83.10
24666;BME280;29726;53.532;-1.478;2023-04-04T05:52:32;101892.03;;;8.94;83.22
24666;BME280;29726;53.532;-1.478;2023-04-04T05:55:35;101882.25;;;8.82;83.27
24666;BME280;29726;53.532;-1.478;2023-04-04T05:58:40;101873.09;;;8.82;83.08
24666;BME280;29726;53.532;-1.478;2023-04-04T06:01:35;101874.69;;;8.83;82.94
24666;BME280;29726;53.532;-1.478;2023-04-04T06:04:42;101871.16;;;8.79;83.11
24666;BME280;29726;53.532;-1.478;2023-04-04T06:18:01;101856.69;;;8.64;83.12
24666;BME280;29726;53.532;-1.478;2023-04-04T06:28:31;101847.69;;;8.53;83.02
24666;BME280;29726;53.532;-1.478;2023-04-04T06:31:36;101811.47;;;8.30;83.14
24666;BME280;29726;53.532;-1.478;2023-04-04T06:38:20;101848.97;;;8.49;83.45
24666;BME280;29726;53.532;-1.478;2023-04-04T06:44:44;101850.56;;;8.50;83.30
24666;BME280;29726;53.532;-1.478;2023-04-04T06:51:09;101843.78;;;8.51;83.72
24666;BME280;29726;53.532;-1.478;2023-04-04T06:54:13;101841.75;;;8.51;83.33
24666;BME280;29726;53.532;-1.478;2023-04-04T07:04:00;101854.38;;;8.59;83.64
24666;BME280;29726;53.532;-1.478;2023-04-04T07:07:02;101844.81;;;8.60;84.04
24666;BME280;29726;53.532;-1.478;2023-04-04T07:09:47;101838.41;;;8.63;84.05
24666;BME280;29726;53.532;-1.478;2023-04-04T07:12:35;101837.50;;;8.70;84.56
24666;BME280;29726;53.532;-1.478;2023-04-04T07:15:19;101835.81;;;8.76;84.31
24666;BME280;29726;53.532;-1.478;2023-04-04T07:18:04;101838.25;;;8.74;84.77
24666;BME280;29726;53.532;-1.478;2023-04-04T07:20:48;101833.75;;;8.80;85.06
24666;BME280;29726;53.532;-1.478;2023-04-04T07:23:31;101839.56;;;8.89;85.01
24666;BME280;29726;53.532;-1.478;2023-04-04T07:26:15;101836.69;;;8.96;85.51
24666;BME280;29726;53.532;-1.478;2023-04-04T07:29:00;101838.25;;;8.97;85.53
24666;BME280;29726;53.532;-1.478;2023-04-04T07:31:44;101840.50;;;9.05;85.40
24666;BME280;29726;53.532;-1.478;2023-04-04T07:34:28;101848.72;;;9.12;85.94
24666;BME280;29726;53.532;-1.478;2023-04-04T07:37:12;101841.88;;;9.17;86.17
24666;BME280;29726;53.532;-1.478;2023-04-04T07:39:56;101836.94;;;9.24;86.73
24666;BME280;29726;53.532;-1.478;2023-04-04T07:42:43;101838.88;;;9.27;86.76
24666;BME280;29726;53.532;-1.478;2023-04-04T07:45:28;101851.84;;;9.37;86.84
24666;BME280;29726;53.532;-1.478;2023-04-04T07:48:12;101836.63;;;9.42;86.89
24666;BME280;29726;53.532;-1.478;2023-04-04T07:50:56;101828.91;;;9.49;87.52
24666;BME280;29726;53.532;-1.478;2023-04-04T07:53:42;101837.00;;;9.63;87.71
24666;BME280;29726;53.532;-1.478;2023-04-04T07:56:26;101831.72;;;9.69;87.95
24666;BME280;29726;53.532;-1.478;2023-04-04T07:59:10;101798.97;;;9.73;88.35
24666;BME280;29726;53.532;-1.478;2023-04-04T08:01:54;101819.25;;;9.92;88.80
24666;BME280;29726;53.532;-1.478;2023-04-04T08:04:38;101813.50;;;9.99;89.20
24666;BME280;29726;53.532;-1.478;2023-04-04T08:07:23;101809.75;;;10.09;89.67
24666;BME280;29726;53.532;-1.478;2023-04-04T08:10:08;101809.06;;;10.21;90.04
24666;BME280;29726;53.532;-1.478;2023-04-04T08:12:52;101807.25;;;10.31;90.76
24666;BME280;29726;53.532;-1.478;2023-04-04T08:15:36;101800.72;;;10.37;90.85
24666;BME280;29726;53.532;-1.478;2023-04-04T08:18:20;101794.88;;;10.48;91.32
24666;BME280;29726;53.532;-1.478;2023-04-04T08:21:04;101794.97;;;10.60;91.80
24666;BME280;29726;53.532;-1.478;2023-04-04T08:23:48;101790.78;;;10.68;91.85
24666;BME280;29726;53.532;-1.478;2023-04-04T08:26:32;101806.75;;;10.84;92.30
24666;BME280;29726;53.532;-1.478;2023-04-04T08:29:16;101790.66;;;10.88;92.74
24666;BME280;29726;53.532;-1.478;2023-04-04T08:32:01;101801.41;;;11.05;92.81
24666;BME280;29726;53.532;-1.478;2023-04-04T08:34:45;101807.47;;;11.16;93.09
24666;BME280;29726;53.532;-1.478;2023-04-04T08:37:29;101741.53;;;10.90;93.29
24666;BME280;29726;53.532;-1.478;2023-04-04T08:40:14;101792.59;;;11.35;93.77
24666;BME280;29726;53.532;-1.478;2023-04-04T08:43:00;101775.63;;;11.42;94.18
24666;BME280;29726;53.532;-1.478;2023-04-04T08:45:45;101753.69;;;11.41;94.38
24666;BME280;29726;53.532;-1.478;2023-04-04T08:48:30;101779.19;;;11.71;94.70
24666;BME280;29726;53.532;-1.478;2023-04-04T08:51:18;101787.16;;;11.85;95.06
24666;BME280;29726;53.532;-1.478;2023-04-04T08:54:02;101781.25;;;11.95;95.04
24666;BME280;29726;53.532;-1.478;2023-04-04T08:56:47;101786.88;;;12.08;95.22
24666;BME280;29726;53.532;-1.478;2023-04-04T08:59:30;101755.63;;;11.97;95.35
24666;BME280;29726;53.532;-1.478;2023-04-04T09:02:28;101778.56;;;12.29;95.63
24666;BME280;29726;53.532;-1.478;2023-04-04T09:05:15;101767.59;;;12.35;95.94
24666;BME280;29726;53.532;-1.478;2023-04-04T09:08:02;101776.22;;;12.53;96.29
24666;BME280;29726;53.532;-1.478;2023-04-04T09:10:48;101756.69;;;12.62;96.82
24666;BME280;29726;53.532;-1.478;2023-04-04T09:13:32;101771.59;;;12.71;96.46
24666;BME280;29726;53.532;-1.478;2023-04-04T09:16:16;101760.94;;;12.79;96.88
24666;BME280;29726;53.532;-1.478;2023-04-04T09:19:00;101766.28;;;12.98;97.29
24666;BME280;29726;53.532;-1.478;2023-04-04T09:21:48;101754.63;;;13.00;97.20
24666;BME280;29726;53.532;-1.478;2023-04-04T09:24:39;101758.69;;;13.20;97.47
24666;BME280;29726;53.532;-1.478;2023-04-04T09:27:24;101761.09;;;13.30;97.35
24666;BME280;29726;53.532;-1.478;2023-04-04T09:30:08;101746.84;;;13.37;97.39
24666;BME280;29726;53.532;-1.478;2023-04-04T09:32:53;101751.16;;;13.51;97.67
24666;BME280;29726;53.532;-1.478;2023-04-04T09:35:58;101755.28;;;13.68;97.70
24666;BME280;29726;53.532;-1.478;2023-04-04T09:38:42;101724.06;;;13.57;97.89
24666;BME280;29726;53.532;-1.478;2023-04-04T09:41:26;101719.28;;;13.66;98.11
24666;BME280;29726;53.532;-1.478;2023-04-04T09:44:10;101756.13;;;13.99;98.18
24666;BME280;29726;53.532;-1.478;2023-04-04T09:47:21;101753.22;;;14.11;98.24
24666;BME280;29726;53.532;-1.478;2023-04-04T09:50:06;101753.59;;;14.22;98.42
24666;BME280;29726;53.532;-1.478;2023-04-04T09:52:51;101747.84;;;14.35;98.67
24666;BME280;29726;53.532;-1.478;2023-04-04T09:55:35;101751.34;;;14.48;98.74
24666;BME280;29726;53.532;-1.478;2023-04-04T09:58:27;101748.84;;;14.59;98.81
24666;BME280;29726;53.532;-1.478;2023-04-04T10:01:12;101733.72;;;14.65;98.85
24666;BME280;29726;53.532;-1.478;2023-04-04T10:03:56;101724.22;;;14.72;98.81
24666;BME280;29726;53.532;-1.478;2023-04-04T10:06:42;101734.25;;;14.91;98.75
24666;BME280;29726;53.532;-1.478;2023-04-04T10:09:27;101747.53;;;14.99;98.48
24666;BME280;29726;53.532;-1.478;2023-04-04T10:12:12;101745.03;;;15.10;98.18
24666;BME280;29726;53.532;-1.478;2023-04-04T10:14:58;101737.69;;;15.21;98.14
24666;BME280;29726;53.532;-1.478;2023-04-04T10:17:43;101747.56;;;15.35;98.16
24666;BME280;29726;53.532;-1.478;2023-04-04T10:20:29;101743.16;;;15.43;98.05
24666;BME280;29726;53.532;-1.478;2023-04-04T10:23:15;101750.19;;;15.56;97.60
24666;BME280;29726;53.532;-1.478;2023-04-04T10:25:59;101752.69;;;15.63;96.75
24666;BME280;29726;53.532;-1.478;2023-04-04T10:28:43;101747.50;;;15.71;97.67
24666;BME280;29726;53.532;-1.478;2023-04-04T10:31:28;101743.41;;;15.81;98.25
24666;BME280;29726;53.532;-1.478;2023-04-04T10:34:25;101753.06;;;15.98;98.61
24666;BME280;29726;53.532;-1.478;2023-04-04T10:37:20;101747.88;;;16.05;98.75
24666;BME280;29726;53.532;-1.478;2023-04-04T10:40:18;101738.44;;;16.17;98.23
24666;BME280;29726;53.532;-1.478;2023-04-04T10:43:05;101740.13;;;16.24;98.59
24666;BME280;29726;53.532;-1.478;2023-04-04T10:45:50;101741.97;;;16.36;97.91
24666;BME280;29726;53.532;-1.478;2023-04-04T10:48:35;101746.16;;;16.49;97.71
24666;BME280;29726;53.532;-1.478;2023-04-04T10:51:19;101754.84;;;16.60;97.04
24666;BME280;29726;53.532;-1.478;2023-04-04T10:54:04;101732.88;;;16.64;97.79
24666;BME280;29726;53.532;-1.478;2023-04-04T10:56:49;101737.03;;;16.77;97.80
24666;BME280;29726;53.532;-1.478;2023-04-04T11:02:48;101730.13;;;17.02;98.21
24666;BME280;29726;53.532;-1.478;2023-04-04T11:05:37;101736.75;;;17.13;97.64
24666;BME280;29726;53.532;-1.478;2023-04-04T11:08:30;101724.91;;;17.24;98.04
24666;BME280;29726;53.532;-1.478;2023-04-04T11:11:20;101716.84;;;17.31;98.36
24666;BME280;29726;53.532;-1.478;2023-04-04T11:14:05;101723.22;;;17.41;97.67
24666;BME280;29726;53.532;-1.478;2023-04-04T11:16:50;101730.63;;;17.53;97.60
24666;BME280;29726;53.532;-1.478;2023-04-04T11:19:34;101720.03;;;17.62;98.22
24666;BME280;29726;53.532;-1.478;2023-04-04T11:22:21;101716.59;;;17.73;97.88
24666;BME280;29726;53.532;-1.478;2023-04-04T11:26:07;101710.38;;;17.83;97.93
24666;BME280;29726;53.532;-1.478;2023-04-04T11:36:51;101696.00;;;18.16;96.65
24666;BME280;29726;53.532;-1.478;2023-04-04T11:39:46;101702.63;;;18.27;97.02
24666;BME280;29726;53.532;-1.478;2023-04-04T11:42:36;101696.34;;;18.38;97.78
24666;BME280;29726;53.532;-1.478;2023-04-04T11:45:24;101698.56;;;18.48;97.06
24666;BME280;29726;53.532;-1.478;2023-04-04T11:48:09;101690.94;;;18.54;95.28
24666;BME280;29726;53.532;-1.478;2023-04-04T11:50:53;101690.22;;;18.59;95.10
24666;BME280;29726;53.532;-1.478;2023-04-04T11:53:41;101694.16;;;18.67;93.97
24666;BME280;29726;53.532;-1.478;2023-04-04T11:56:25;101694.53;;;18.74;92.99
24666;BME280;29726;53.532;-1.478;2023-04-04T11:59:16;101688.75;;;18.83;94.18
24666;BME280;29726;53.532;-1.478;2023-04-04T12:02:00;101675.91;;;18.88;93.93
24666;BME280;29726;53.532;-1.478;2023-04-04T12:04:46;101666.78;;;18.98;95.79
24666;BME280;29726;53.532;-1.478;2023-04-04T12:07:30;101661.47;;;19.06;95.71
24666;BME280;29726;53.532;-1.478;2023-04-04T12:10:14;101661.31;;;19.15;96.97
24666;BME280;29726;53.532;-1.478;2023-04-04T12:12:58;101653.91;;;19.17;94.99
24666;BME280;29726;53.532;-1.478;2023-04-04T12:15:42;101655.78;;;19.26;94.16
24666;BME280;29726;53.532;-1.478;2023-04-04T12:18:26;101649.41;;;19.31;92.76
24666;BME280;29726;53.532;-1.478;2023-04-04T12:21:10;101658.03;;;19.42;93.88
24666;BME280;29726;53.532;-1.478;2023-04-04T12:23:55;101639.69;;;19.37;92.46
24666;BME280;29726;53.532;-1.478;2023-04-04T12:26:41;101651.91;;;19.49;89.98
24666;BME280;29726;53.532;-1.478;2023-04-04T12:29:27;101655.81;;;19.57;89.73
24666;BME280;29726;53.532;-1.478;2023-04-04T12:32:13;101652.56;;;19.64;89.77
24666;BME280;29726;53.532;-1.478;2023-04-04T12:35:00;101644.06;;;19.64;89.04
24666;BME280;29726;53.532;-1.478;2023-04-04T12:38:02;101638.19;;;19.73;89.26
24666;BME280;29726;53.532;-1.478;2023-04-04T12:40:46;101602.25;;;19.59;88.69
24666;BME280;29726;53.532;-1.478;2023-04-04T12:43:30;101632.31;;;19.82;87.99
24666;BME280;29726;53.532;-1.478;2023-04-04T12:46:16;101626.91;;;19.84;87.85
24666;BME280;29726;53.532;-1.478;2023-04-04T12:49:02;101625.94;;;19.92;88.63
24666;BME280;29726;53.532;-1.478;2023-04-04T12:51:46;101632.94;;;19.97;88.84
24666;BME280;29726;53.532;-1.478;2023-04-04T12:54:31;101598.41;;;19.93;88.30
24666;BME280;29726;53.532;-1.478;2023-04-04T12:57:17;101614.47;;;20.07;89.03
24666;BME280;29726;53.532;-1.478;2023-04-04T13:00:04;101606.81;;;20.13;90.78
24666;BME280;29726;53.532;-1.478;2023-04-04T13:02:50;101605.78;;;20.16;89.50
24666;BME280;29726;53.532;-1.478;2023-04-04T13:05:34;101588.50;;;20.14;91.31
24666;BME280;29726;53.532;-1.478;2023-04-04T13:08:19;101605.84;;;20.26;90.69
24666;BME280;29726;53.532;-1.478;2023-04-04T13:11:04;101605.88;;;20.32;89.45
24666;BME280;29726;53.532;-1.478;2023-04-04T13:14:02;101594.56;;;20.37;87.57
24666;BME280;29726;53.532;-1.478;2023-04-04T13:17:03;101599.22;;;20.40;87.23
24666;BME280;29726;53.532;-1.478;2023-04-04T13:19:49;101579.09;;;20.38;84.14
24666;BME280;29726;53.532;-1.478;2023-04-04T13:22:34;101582.44;;;20.42;83.90
24666;BME280;29726;53.532;-1.478;2023-04-04T13:25:19;101589.19;;;20.50;88.13
24666;BME280;29726;53.532;-1.478;2023-04-04T13:28:03;101574.75;;;20.54;90.29
24666;BME280;29726;53.532;-1.478;2023-04-04T13:30:48;101574.25;;;20.55;83.92
24666;BME280;29726;53.532;-1.478;2023-04-04T13:33:32;101582.25;;;20.62;81.01
24666;BME280;29726;53.532;-1.478;2023-04-04T13:36:16;101566.53;;;20.61;82.37
24666;BME280;29726;53.532;-1.478;2023-04-04T13:39:00;101565.75;;;20.66;84.59
24666;BME280;29726;53.532;-1.478;2023-04-04T13:41:44;101566.28;;;20.70;82.53
24666;BME280;29726;53.532;-1.478;2023-04-04T13:44:28;101562.69;;;20.75;80.90
24666;BME280;29726;53.532;-1.478;2023-04-04T13:47:12;101556.00;;;20.78;79.93
24666;BME280;29726;53.532;-1.478;2023-04-04T13:49:56;101556.25;;;20.80;79.38
24666;BME280;29726;53.532;-1.478;2023-04-04T13:52:40;101553.69;;;20.82;80.32
24666;BME280;29726;53.532;-1.478;2023-04-04T13:55:25;101540.78;;;20.87;80.37
24666;BME280;29726;53.532;-1.478;2023-04-04T13:58:09;101518.06;;;20.76;79.48
24666;BME280;29726;53.532;-1.478;2023-04-04T14:00:53;101519.63;;;20.88;77.84
24666;BME280;29726;53.532;-1.478;2023-04-04T14:03:37;101534.38;;;20.97;83.44
24666;BME280;29726;53.532;-1.478;2023-04-04T14:06:21;101523.53;;;21.01;80.00
24666;BME280;29726;53.532;-1.478;2023-04-04T14:09:05;101520.69;;;21.07;81.50
24666;BME280;29726;53.532;-1.478;2023-04-04T14:11:50;101511.41;;;21.12;79.83
24666;BME280;29726;53.532;-1.478;2023-04-04T14:14:34;101507.53;;;21.15;78.48
24666;BME280;29726;53.532;-1.478;2023-04-04T14:17:18;101507.00;;;21.16;78.37
24666;BME280;29726;53.532;-1.478;2023-04-04T14:20:03;101502.38;;;21.19;80.42
24666;BME280;29726;53.532;-1.478;2023-04-04T14:22:48;101500.81;;;21.23;78.88
24666;BME280;29726;53.532;-1.478;2023-04-04T14:25:33;101510.88;;;21.30;80.55
24666;BME280;29726;53.532;-1.478;2023-04-04T14:28:17;101507.00;;;21.33;81.40
24666;BME280;29726;53.532;-1.478;2023-04-04T14:31:01;101508.28;;;21.37;80.67
24666;BME280;29726;53.532;-1.478;2023-04-04T14:33:45;101505.97;;;21.41;78.41
24666;BME280;29726;53.532;-1.478;2023-04-04T14:36:29;101492.00;;;21.43;79.67
24666;BME280;29726;53.532;-1.478;2023-04-04T14:39:14;101490.97;;;21.46;79.46
24666;BME280;29726;53.532;-1.478;2023-04-04T14:41:58;101492.00;;;21.49;76.55
24666;BME280;29726;53.532;-1.478;2023-04-04T14:44:42;101460.78;;;21.38;75.05
24666;BME280;29726;53.532;-1.478;2023-04-04T14:47:26;101475.19;;;21.51;76.33
24666;BME280;29726;53.532;-1.478;2023-04-04T14:50:10;101485.28;;;21.57;75.16
24666;BME280;29726;53.532;-1.478;2023-04-04T14:52:55;101477.25;;;21.61;75.73
24666;BME280;29726;53.532;-1.478;2023-04-04T14:55:39;101473.38;;;21.64;75.23
24666;BME280;29726;53.532;-1.478;2023-04-04T14:58:24;101462.53;;;21.57;74.43
24666;BME280;29726;53.532;-1.478;2023-04-04T15:01:08;101476.72;;;21.68;74.25
24666;BME280;29726;53.532;-1.478;2023-04-04T15:03:52;101471.31;;;21.70;75.06
24666;BME280;29726;53.532;-1.478;2023-04-04T15:06:36;101466.91;;;21.69;73.26
24666;BME280;29726;53.532;-1.478;2023-04-04T15:09:22;101456.81;;;21.68;73.63
24666;BME280;29726;53.532;-1.478;2023-04-04T15:12:06;101462.75;;;21.76;74.22
24666;BME280;29726;53.532;-1.478;2023-04-04T15:14:50;101450.63;;;21.75;73.00
24666;BME280;29726;53.532;-1.478;2023-04-04T15:21:09;101445.44;;;21.79;74.66
24666;BME280;29726;53.532;-1.478;2023-04-04T15:27:34;101434.88;;;21.74;73.90
24666;BME280;29726;53.532;-1.478;2023-04-04T15:30:18;101411.38;;;21.63;74.56
24666;BME280;29726;53.532;-1.478;2023-04-04T15:33:03;101439.22;;;21.81;74.91
24666;BME280;29726;53.532;-1.478;2023-04-04T15:35:46;101431.22;;;21.79;74.71
24666;BME280;29726;53.532;-1.478;2023-04-04T15:38:30;101439.22;;;21.81;75.09
24666;BME280;29726;53.532;-1.478;2023-04-04T15:41:14;101429.94;;;21.80;74.85
24666;BME280;29726;53.532;-1.478;2023-04-04T15:43:58;101431.22;;;21.79;74.90
24666;BME280;29726;53.532;-1.478;2023-04-04T15:46:43;101424.25;;;21.80;75.19
24666;BME280;29726;53.532;-1.478;2023-04-04T15:49:27;101423.44;;;21.80;74.72
24666;BME280;29726;53.532;-1.478;2023-04-04T15:52:11;101426.84;;;21.78;75.20
24666;BME280;29726;53.532;-1.478;2023-04-04T15:54:56;101424.00;;;21.78;74.70
24666;BME280;29726;53.532;-1.478;2023-04-04T15:57:40;101421.41;;;21.75;74.04
24666;BME280;29726;53.532;-1.478;2023-04-04T16:00:26;101418.56;;;21.69;74.45
24666;BME280;29726;53.532;-1.478;2023-04-04T16:03:11;101416.25;;;21.73;74.82
24666;BME280;29726;53.532;-1.478;2023-04-04T16:06:08;101402.31;;;21.70;74.06
24666;BME280;29726;53.532;-1.478;2023-04-04T16:09:09;101394.56;;;21.70;74.02
24666;BME280;29726;53.532;-1.478;2023-04-04T16:11:54;101393.00;;;21.69;74.19
24666;BME280;29726;53.532;-1.478;2023-04-04T16:14:39;101386.31;;;21.67;74.33